createdAt,value
2019-01-06T00:01:27.458Z,102844.23
2019-01-06T00:04:11.532Z,102848.06
2019-01-06T00:06:59.610Z,102849.02
2019-01-06T00:09:37.562Z,102846.20
2019-01-06T00:12:18.815Z,102848.56
2019-01-06T00:15:08.731Z,102853.61
2019-01-06T00:17:57.102Z,102858.16
2019-01-06T00:20:29.137Z,102864.91
2019-01-06T00:23:10.162Z,102869.70
2019-01-06T00:25:44.829Z,102866.47
2019-01-06T00:28:32.953Z,102870.09
2019-01-06T00:31:07.634Z,102865.55
2019-01-06T00:33:42.626Z,102866.75
2019-01-06T00:36:17.394Z,102863.41
2019-01-06T00:38:52.281Z,102866.50
2019-01-06T00:41:39.553Z,102864.33
2019-01-06T00:44:14.382Z,102870.80
2019-01-06T00:46:54.966Z,102866.77
2019-01-06T00:49:39.179Z,102866.91
2019-01-06T00:52:27.918Z,102868.87
2019-01-06T00:55:18.211Z,102874.56
2019-01-06T00:57:55.860Z,102876.53
2019-01-06T01:00:27.975Z,102878.08
2019-01-06T01:03:00.026Z,102877.61
2019-01-06T01:05:32.042Z,102881.25
2019-01-06T01:08:04.070Z,102871.98
2019-01-06T01:10:39.187Z,102883.48
2019-01-06T01:13:11.206Z,102880.33
2019-01-06T01:15:43.228Z,102888.77
2019-01-06T01:18:15.246Z,102891.70
2019-01-06T01:20:50.239Z,102897.31
2019-01-06T01:23:22.226Z,102893.33
2019-01-06T01:25:54.293Z,102887.16
2019-01-06T01:28:44.392Z,102889.77
2019-01-06T01:31:19.074Z,102890.59
2019-01-06T01:33:51.078Z,102894.58
2019-01-06T01:36:32.730Z,102891.35
2019-01-06T01:39:07.523Z,102889.36
2019-01-06T01:41:48.361Z,102895.31
2019-01-06T01:44:37.658Z,102896.61
2019-01-06T01:47:12.616Z,102899.14
2019-01-06T01:49:44.656Z,102898.76
2019-01-06T01:52:33.028Z,102904.02
2019-01-06T01:55:21.911Z,102906.38
2019-01-06T01:58:05.926Z,102902.02
2019-01-06T02:00:37.975Z,102905.84
2019-01-06T02:03:10.046Z,102910.38
2019-01-06T02:05:45.026Z,102912.62
2019-01-06T02:08:17.047Z,102909.00
2019-01-06T02:10:49.360Z,102912.32
2019-01-06T02:13:33.535Z,102914.67
2019-01-06T02:16:17.780Z,102914.17
2019-01-06T02:18:55.846Z,102916.44
2019-01-06T02:21:27.879Z,102920.48
2019-01-06T02:24:03.031Z,102919.80
2019-01-06T02:26:53.079Z,102918.69
2019-01-06T02:29:31.326Z,102915.03
2019-01-06T02:32:06.428Z,102922.23
2019-01-06T02:34:54.818Z,102924.66
2019-01-06T02:37:38.801Z,102923.78
2019-01-06T02:40:13.626Z,102929.62
2019-01-06T02:43:00.637Z,102930.44
2019-01-06T02:45:38.693Z,102940.11
2019-01-06T02:48:27.080Z,102935.07
2019-01-06T02:51:11.286Z,102935.52
2019-01-06T02:53:59.782Z,102932.38
2019-01-06T02:56:49.729Z,102929.13
2019-01-06T02:59:37.156Z,102935.42
2019-01-06T03:02:09.172Z,102938.11
2019-01-06T03:04:44.240Z,102936.80
2019-01-06T03:07:19.058Z,102936.02
2019-01-06T03:10:06.039Z,102935.63
2019-01-06T03:12:38.068Z,102932.59
2019-01-06T03:15:10.184Z,102936.34
2019-01-06T03:17:58.245Z,102938.12
2019-01-06T03:20:39.525Z,102940.88
2019-01-06T03:23:23.090Z,102942.11
2019-01-06T03:25:55.132Z,102941.94
2019-01-06T03:28:45.400Z,102944.16
2019-01-06T03:31:29.599Z,102943.38
2019-01-06T03:34:17.262Z,102946.17
2019-01-06T03:36:55.235Z,102941.08
2019-01-06T03:39:42.835Z,102944.00
2019-01-06T03:42:26.754Z,102945.88
2019-01-06T03:45:04.434Z,102939.80
2019-01-06T03:47:39.684Z,102938.41
2019-01-06T03:50:27.298Z,102942.94
2019-01-06T03:53:15.722Z,102942.63
2019-01-06T03:55:53.266Z,102952.58
2019-01-06T03:58:31.274Z,102951.12
2019-01-06T04:01:03.405Z,102958.13
2019-01-06T04:03:53.636Z,102957.22
2019-01-06T04:06:37.803Z,102960.55
2019-01-06T04:09:12.468Z,102968.91
2019-01-06T04:12:02.973Z,102963.95
2019-01-06T04:14:38.081Z,102960.22
2019-01-06T04:17:26.225Z,102962.32
2019-01-06T04:20:13.758Z,102962.23
2019-01-06T04:23:01.038Z,102957.76
2019-01-06T04:25:33.053Z,102956.77
2019-01-06T04:28:17.386Z,102964.11
2019-01-06T04:30:55.330Z,102957.20
2019-01-06T04:33:33.462Z,102955.34
2019-01-06T04:36:17.271Z,102958.11
2019-01-06T04:39:07.286Z,102961.76
2019-01-06T04:41:42.035Z,102966.18
2019-01-06T04:44:20.696Z,102973.66
2019-01-06T04:46:58.705Z,102962.91
2019-01-06T04:49:39.698Z,102971.98
2019-01-06T04:52:23.656Z,102965.98
2019-01-06T04:55:11.722Z,102964.71
2019-01-06T04:57:43.751Z,102961.78
2019-01-06T05:00:21.732Z,102964.47
2019-01-06T05:03:11.832Z,102966.83
2019-01-06T05:05:49.658Z,102965.09
2019-01-06T05:08:21.695Z,102959.92
2019-01-06T05:10:56.126Z,102965.59
2019-01-06T05:13:28.163Z,102965.27
2019-01-06T05:16:06.204Z,102965.77
2019-01-06T05:18:41.345Z,102968.37
2019-01-06T05:21:28.375Z,102967.45
2019-01-06T05:24:12.128Z,102973.38
2019-01-06T05:26:59.347Z,102975.41
2019-01-06T05:29:31.650Z,102972.23
2019-01-06T05:32:06.675Z,102973.73
2019-01-06T05:34:44.323Z,102979.06
2019-01-06T05:37:32.780Z,102982.20
2019-01-06T05:40:07.760Z,102988.73
2019-01-06T05:42:39.886Z,102988.08
2019-01-06T05:45:11.929Z,102988.06
2019-01-06T05:47:58.944Z,102989.20
2019-01-06T05:50:30.987Z,102996.91
2019-01-06T05:53:05.945Z,102999.42
2019-01-06T05:55:46.721Z,103000.64
2019-01-06T05:58:18.749Z,102997.16
2019-01-06T06:00:59.440Z,103006.40
2019-01-06T06:03:40.685Z,103005.59
2019-01-06T06:06:24.158Z,103010.02
2019-01-06T06:09:12.491Z,103013.59
2019-01-06T06:11:44.521Z,103020.07
2019-01-06T06:14:22.563Z,103020.88
2019-01-06T06:16:54.590Z,103021.16
2019-01-06T06:19:35.121Z,103015.65
2019-01-06T06:22:10.042Z,103019.94
2019-01-06T06:24:42.089Z,103016.02
2019-01-06T06:27:23.497Z,103013.09
2019-01-06T06:30:04.547Z,103014.32
2019-01-06T06:32:54.598Z,103013.45
2019-01-06T06:35:32.602Z,103016.09
2019-01-06T06:38:20.975Z,103022.41
2019-01-06T06:40:52.999Z,103023.72
2019-01-06T06:43:40.258Z,103026.80
2019-01-06T06:46:18.212Z,103025.67
2019-01-06T06:48:54.763Z,103027.36
2019-01-06T06:51:32.745Z,103021.05
2019-01-06T06:54:10.598Z,103019.59
2019-01-06T06:56:48.809Z,103026.00
2019-01-06T06:59:32.679Z,103027.39
2019-01-06T07:02:35.426Z,103027.03
2019-01-06T07:05:20.330Z,103033.36
2019-01-06T07:08:10.405Z,103025.27
2019-01-06T07:10:42.424Z,103024.78
2019-01-06T07:13:30.777Z,103032.11
2019-01-06T07:16:02.803Z,103029.61
2019-01-06T07:18:40.535Z,103035.86
2019-01-06T07:21:15.771Z,103034.16
2019-01-06T07:23:47.809Z,103042.50
2019-01-06T07:26:22.952Z,103044.45
2019-01-06T07:29:11.403Z,103058.26
2019-01-06T07:32:01.659Z,103066.20
2019-01-06T07:34:36.272Z,103068.56
2019-01-06T07:37:16.886Z,103063.05
2019-01-06T07:39:48.925Z,103068.20
2019-01-06T07:42:32.823Z,103074.44
2019-01-06T07:45:04.866Z,103082.30
2019-01-06T07:47:36.892Z,103071.92
2019-01-06T07:50:14.639Z,103062.61
2019-01-06T07:52:55.568Z,103064.80
2019-01-06T07:55:30.516Z,103065.61
2019-01-06T07:58:02.552Z,103063.02
2019-01-06T08:00:37.513Z,103071.44
2019-01-06T08:03:09.559Z,103074.16
2019-01-06T08:05:57.946Z,103069.94
2019-01-06T08:08:29.979Z,103078.13
2019-01-06T08:11:04.929Z,103079.91
2019-01-06T08:13:39.873Z,103089.55
2019-01-06T08:16:28.257Z,103097.97
2019-01-06T08:19:05.992Z,103104.28
2019-01-06T08:21:47.089Z,103107.69
2019-01-06T08:24:25.095Z,103111.53
2019-01-06T08:27:12.852Z,103110.72
2019-01-06T08:29:47.854Z,103115.58
2019-01-06T08:32:22.834Z,103107.31
2019-01-06T08:34:54.887Z,103111.78
2019-01-06T08:37:32.733Z,103114.00
2019-01-06T08:40:13.523Z,103117.57
2019-01-06T08:43:01.699Z,103119.07
2019-01-06T08:45:34.365Z,103114.30
2019-01-06T08:48:22.739Z,103112.44
2019-01-06T08:50:57.462Z,103111.87
2019-01-06T08:53:35.159Z,103116.73
2019-01-06T08:56:10.119Z,103117.38
2019-01-06T08:58:57.345Z,103116.56
2019-01-06T09:01:45.509Z,103122.56
2019-01-06T09:04:20.482Z,103119.96
2019-01-06T09:06:52.520Z,103113.85
2019-01-06T09:09:30.496Z,103115.14
2019-01-06T09:12:02.535Z,103121.30
2019-01-06T09:14:40.496Z,103127.09
2019-01-06T09:17:12.539Z,103125.23
2019-01-06T09:19:53.427Z,103118.00
2019-01-06T09:22:28.385Z,103120.16
2019-01-06T09:25:16.748Z,103121.12
2019-01-06T09:28:07.063Z,103115.69
2019-01-06T09:30:55.513Z,103113.75
2019-01-06T09:33:45.558Z,103111.30
2019-01-06T09:36:36.036Z,103112.25
2019-01-06T09:39:15.183Z,103118.48
2019-01-06T09:41:53.212Z,103115.89
2019-01-06T09:44:31.166Z,103123.09
2019-01-06T09:47:05.935Z,103119.52
2019-01-06T09:49:55.940Z,103124.34
2019-01-06T09:52:36.745Z,103120.20
2019-01-06T09:55:08.778Z,103121.66
2019-01-06T09:57:43.254Z,103112.98
2019-01-06T10:00:31.699Z,103121.36
2019-01-06T10:03:12.748Z,103119.01
2019-01-06T10:05:44.773Z,103118.67
2019-01-06T10:08:32.928Z,103118.43
2019-01-06T10:11:17.161Z,103120.05
2019-01-06T10:13:51.642Z,103122.40
2019-01-06T10:16:32.560Z,103111.78
2019-01-06T10:19:10.513Z,103119.28
2019-01-06T10:21:54.512Z,103112.55
2019-01-06T10:24:38.197Z,103112.05
2019-01-06T10:27:26.569Z,103115.66
2019-01-06T10:30:07.638Z,103123.53
2019-01-06T10:32:45.640Z,103114.70
2019-01-06T10:35:23.404Z,103111.46
2019-01-06T10:37:55.424Z,103105.13
2019-01-06T10:40:39.366Z,103105.13
2019-01-06T10:43:27.943Z,103108.66
2019-01-06T10:46:17.968Z,103118.78
2019-01-06T10:48:49.986Z,103117.79
2019-01-06T10:51:22.101Z,103121.45
2019-01-06T10:54:03.242Z,103123.41
2019-01-06T10:56:38.239Z,103119.13
2019-01-06T10:59:13.020Z,103110.45
2019-01-06T11:02:01.174Z,103107.82
2019-01-06T11:04:42.102Z,103096.79
2019-01-06T11:07:17.521Z,103093.88
2019-01-06T11:09:49.543Z,103098.22
2019-01-06T11:12:38.009Z,103092.88
2019-01-06T11:15:26.399Z,103092.11
2019-01-06T11:18:13.399Z,103089.66
2019-01-06T11:20:47.825Z,103096.61
2019-01-06T11:23:36.073Z,103094.31
2019-01-06T11:26:15.687Z,103087.36
2019-01-06T11:29:03.241Z,103085.16
2019-01-06T11:31:38.095Z,103079.14
2019-01-06T11:34:19.244Z,103074.68
2019-01-06T11:37:03.546Z,103071.35
2019-01-06T11:39:51.638Z,103072.73
2019-01-06T11:42:23.683Z,103074.51
2019-01-06T11:45:01.542Z,103083.85
2019-01-06T11:47:34.052Z,103092.13
2019-01-06T11:50:12.497Z,103095.05
2019-01-06T11:52:59.523Z,103090.82
2019-01-06T11:55:37.604Z,103082.20
2019-01-06T11:58:27.566Z,103076.99
2019-01-06T12:01:15.833Z,103068.34
2019-01-06T12:03:53.752Z,103068.42
2019-01-06T12:06:25.786Z,103067.53
2019-01-06T12:08:57.842Z,103071.88
2019-01-06T12:11:45.763Z,103073.67
2019-01-06T12:14:34.117Z,103081.32
2019-01-06T12:17:22.619Z,103078.91
2019-01-06T12:20:13.195Z,103079.73
2019-01-06T12:22:54.079Z,103087.20
2019-01-06T12:25:26.124Z,103086.64
2019-01-06T12:28:10.267Z,103082.41
2019-01-06T12:30:51.540Z,103084.04
2019-01-06T12:33:26.536Z,103084.25
2019-01-06T12:36:04.651Z,103083.20
2019-01-06T12:38:49.073Z,103078.56
2019-01-06T12:41:27.482Z,103072.07
2019-01-06T12:44:06.314Z,103071.34
2019-01-06T12:46:53.859Z,103078.41
2019-01-06T12:49:31.642Z,103088.09
2019-01-06T12:52:23.697Z,103083.80
2019-01-06T12:54:56.045Z,103085.42
2019-01-06T12:57:44.733Z,103089.98
2019-01-06T13:00:25.697Z,103083.64
2019-01-06T13:03:13.842Z,103089.33
2019-01-06T13:05:51.595Z,103097.94
2019-01-06T13:08:32.946Z,103105.38
2019-01-06T13:11:04.973Z,103110.67
2019-01-06T13:13:45.952Z,103110.09
2019-01-06T13:16:23.871Z,103113.75
2019-01-06T13:18:55.917Z,103111.16
2019-01-06T13:21:30.616Z,103103.85
2019-01-06T13:24:19.126Z,103105.62
2019-01-06T13:26:56.840Z,103109.38
2019-01-06T13:29:31.851Z,103114.84
2019-01-06T13:32:06.942Z,103114.44
2019-01-06T13:34:39.824Z,103106.00
2019-01-06T13:37:11.837Z,103109.83
2019-01-06T13:40:00.365Z,103110.08
2019-01-06T13:42:32.458Z,103116.58
2019-01-06T13:45:04.478Z,103116.83
2019-01-06T13:47:45.640Z,103115.28
2019-01-06T13:50:17.648Z,103117.33
2019-01-06T13:53:01.772Z,103118.03
2019-01-06T13:55:42.937Z,103123.64
2019-01-06T13:58:21.507Z,103119.61
2019-01-06T14:01:09.894Z,103119.74
2019-01-06T14:03:47.885Z,103120.09
2019-01-06T14:06:36.199Z,103124.07
2019-01-06T14:09:27.219Z,103123.92
2019-01-06T14:12:15.278Z,103122.05
2019-01-06T14:14:47.282Z,103122.05
2019-01-06T14:17:22.014Z,103125.45
2019-01-06T14:19:57.383Z,103127.95
2019-01-06T14:22:29.407Z,103128.86
2019-01-06T14:25:17.499Z,103132.28
2019-01-06T14:27:58.114Z,103127.57
2019-01-06T14:30:32.870Z,103122.91
2019-01-06T14:33:04.941Z,103134.04
2019-01-06T14:35:37.324Z,103135.10
2019-01-06T14:38:25.779Z,103127.80
2019-01-06T14:40:57.814Z,103128.45
2019-01-06T14:43:45.855Z,103122.86
2019-01-06T14:46:27.010Z,103130.65
2019-01-06T14:49:01.718Z,103130.73
2019-01-06T14:51:34.086Z,103137.39
2019-01-06T14:54:15.224Z,103137.70
2019-01-06T14:57:03.292Z,103138.02
2019-01-06T14:59:44.436Z,103135.67
2019-01-06T15:02:19.829Z,103130.96
2019-01-06T15:05:06.739Z,103129.42
2019-01-06T15:07:47.550Z,103129.51
2019-01-06T15:10:25.799Z,103136.89
2019-01-06T15:13:00.925Z,103132.19
2019-01-06T15:15:35.636Z,103134.13
2019-01-06T15:18:14.104Z,103126.34
2019-01-06T15:21:01.404Z,103126.82
2019-01-06T15:23:33.420Z,103130.97
2019-01-06T15:26:24.010Z,103129.77
2019-01-06T15:29:12.443Z,103129.33
2019-01-06T15:31:50.044Z,103130.38
2019-01-06T15:34:25.020Z,103129.66
2019-01-06T15:37:12.169Z,103137.55
2019-01-06T15:39:47.118Z,103134.31
2019-01-06T15:42:19.152Z,103130.09
2019-01-06T15:45:06.293Z,103125.53
2019-01-06T15:47:38.323Z,103130.55
2019-01-06T15:50:16.269Z,103128.27
2019-01-06T15:53:03.617Z,103126.56
2019-01-06T15:55:52.170Z,103112.69
2019-01-06T15:58:24.185Z,103117.11
2019-01-06T16:01:08.387Z,103119.21
2019-01-06T16:03:43.318Z,103120.18
2019-01-06T16:06:31.661Z,103123.98
2019-01-06T16:09:18.835Z,103122.52
2019-01-06T16:12:07.057Z,103116.69
2019-01-06T16:14:55.383Z,103121.31
2019-01-06T16:17:43.736Z,103121.39
2019-01-06T16:20:31.903Z,103128.30
2019-01-06T16:23:06.378Z,103128.69
2019-01-06T16:25:41.291Z,103127.22
2019-01-06T16:28:22.901Z,103136.14
2019-01-06T16:31:09.902Z,103128.63
2019-01-06T16:33:45.062Z,103132.35
2019-01-06T16:36:33.535Z,103133.89
2019-01-06T16:39:23.325Z,103132.66
2019-01-06T16:41:55.344Z,103128.45
2019-01-06T16:44:27.388Z,103127.47
2019-01-06T16:46:59.412Z,103123.25
2019-01-06T16:49:47.588Z,103124.86
2019-01-06T16:52:19.607Z,103121.62
2019-01-06T16:55:09.363Z,103125.18
2019-01-06T16:57:50.285Z,103130.30
2019-01-06T17:00:38.613Z,103128.27
2019-01-06T17:03:10.652Z,103129.52
2019-01-06T17:05:59.141Z,103134.30
2019-01-06T17:08:37.257Z,103138.59
2019-01-06T17:11:12.211Z,103137.28
2019-01-06T17:13:54.890Z,103132.81
2019-01-06T17:16:26.957Z,103128.98
2019-01-06T17:19:02.067Z,103128.73
2019-01-06T17:21:50.127Z,103128.64
2019-01-06T17:24:38.471Z,103123.44
2019-01-06T17:27:19.500Z,103116.62
2019-01-06T17:29:51.533Z,103114.52
2019-01-06T17:32:26.483Z,103112.17
2019-01-06T17:35:10.680Z,103117.53
2019-01-06T17:37:59.171Z,103117.67
2019-01-06T17:40:40.416Z,103121.98
2019-01-06T17:43:12.818Z,103124.73
2019-01-06T17:45:50.426Z,103127.89
2019-01-06T17:48:31.851Z,103122.93
2019-01-06T17:51:16.013Z,103127.64
2019-01-06T17:54:04.357Z,103129.58
2019-01-06T17:56:45.219Z,103127.80
2019-01-06T17:59:33.102Z,103123.34
2019-01-06T18:02:05.269Z,103121.31
2019-01-06T18:04:37.275Z,103118.30
2019-01-06T18:07:09.697Z,103119.84
2019-01-06T18:09:59.850Z,103121.13
2019-01-06T18:12:37.644Z,103121.72
2019-01-06T18:15:11.305Z,103122.02
2019-01-06T18:17:49.288Z,103129.41
2019-01-06T18:20:37.469Z,103132.89
2019-01-06T18:23:25.822Z,103135.73
2019-01-06T18:26:03.995Z,103138.50
2019-01-06T18:28:36.011Z,103130.70
2019-01-06T18:31:14.234Z,103130.45
2019-01-06T18:33:55.376Z,103125.91
2019-01-06T18:36:30.122Z,103128.74
2019-01-06T18:39:18.486Z,103121.31
2019-01-06T18:41:56.430Z,103114.20
2019-01-06T18:44:44.996Z,103123.14
2019-01-06T18:47:29.105Z,103119.00
2019-01-06T18:50:03.815Z,103119.05
2019-01-06T18:52:36.381Z,103119.61
2019-01-06T18:55:11.225Z,103123.66
2019-01-06T18:57:55.506Z,103124.94
2019-01-06T19:00:27.597Z,103114.53
2019-01-06T19:03:15.825Z,103122.81
2019-01-06T19:06:05.856Z,103120.21
2019-01-06T19:08:49.951Z,103113.80
2019-01-06T19:11:38.278Z,103117.55
2019-01-06T19:14:28.573Z,103120.14
2019-01-06T19:17:19.023Z,103122.50
2019-01-06T19:19:53.927Z,103126.00
2019-01-06T19:22:29.517Z,103123.16
2019-01-06T19:25:01.644Z,103127.87
2019-01-06T19:27:34.902Z,103125.19
2019-01-06T19:30:24.484Z,103122.17
2019-01-06T19:32:59.488Z,103123.97
2019-01-06T19:35:34.807Z,103116.58
2019-01-06T19:38:23.178Z,103121.36
2019-01-06T19:41:11.759Z,103116.89
2019-01-06T19:43:43.820Z,103115.33
2019-01-06T19:46:21.566Z,103112.17
2019-01-06T19:48:56.603Z,103113.38
2019-01-06T19:51:31.281Z,103107.69
2019-01-06T19:54:12.312Z,103108.70
2019-01-06T19:56:47.557Z,103103.98
2019-01-06T19:59:19.611Z,103103.74
2019-01-06T20:01:54.576Z,103103.25
2019-01-06T20:04:41.520Z,103093.42
2019-01-06T20:07:13.756Z,103101.14
2019-01-06T20:09:51.613Z,103099.67
2019-01-06T20:12:39.469Z,103095.20
2019-01-06T20:15:14.520Z,103097.89
2019-01-06T20:17:49.506Z,103099.19
2019-01-06T20:20:33.107Z,103094.80
2019-01-06T20:23:17.381Z,103092.03
2019-01-06T20:26:04.360Z,103093.17
2019-01-06T20:28:52.791Z,103088.38
2019-01-06T20:31:43.199Z,103088.70
2019-01-06T20:34:27.196Z,103089.85
2019-01-06T20:36:59.293Z,103088.32
2019-01-06T20:39:34.296Z,103087.17
2019-01-06T20:42:09.116Z,103080.19
2019-01-06T20:44:47.088Z,103085.05
2019-01-06T20:47:22.341Z,103074.33
2019-01-06T20:50:10.930Z,103072.77
2019-01-06T20:52:57.938Z,103062.78
2019-01-06T20:55:46.392Z,103064.56
2019-01-06T20:58:21.585Z,103058.97
2019-01-06T21:01:09.734Z,103067.73
2019-01-06T21:03:41.768Z,103067.90
2019-01-06T21:06:29.038Z,103070.82
2019-01-06T21:09:17.530Z,103066.93
2019-01-06T21:11:58.686Z,103066.37
2019-01-06T21:14:30.729Z,103070.52
2019-01-06T21:17:08.758Z,103068.01
2019-01-06T21:19:57.184Z,103065.40
2019-01-06T21:22:32.613Z,103065.80
2019-01-06T21:25:07.502Z,103069.29
2019-01-06T21:27:56.189Z,103064.02
2019-01-06T21:30:28.575Z,103065.06
2019-01-06T21:33:12.857Z,103063.43
2019-01-06T21:35:44.930Z,103064.97
2019-01-06T21:38:19.901Z,103056.77
2019-01-06T21:41:08.245Z,103064.48
2019-01-06T21:43:40.279Z,103061.80
2019-01-06T21:46:28.474Z,103062.36
2019-01-06T21:49:00.513Z,103056.11
2019-01-06T21:51:41.381Z,103063.48
2019-01-06T21:54:22.385Z,103061.28
2019-01-06T21:57:00.185Z,103059.42
2019-01-06T21:59:47.219Z,103056.66
2019-01-06T22:02:25.371Z,103055.03
2019-01-06T22:05:06.199Z,103047.89
2019-01-06T22:07:38.243Z,103047.48
2019-01-06T22:10:26.691Z,103050.97
2019-01-06T22:13:10.703Z,103042.11
2019-01-06T22:15:59.113Z,103047.80
2019-01-06T22:18:42.892Z,103044.46
2019-01-06T22:21:14.928Z,103044.64
2019-01-06T22:23:49.949Z,103047.16
2019-01-06T22:26:24.723Z,103037.96
2019-01-06T22:29:13.124Z,103040.59
2019-01-06T22:31:54.398Z,103033.36
2019-01-06T22:34:41.420Z,103034.97
2019-01-06T22:37:30.286Z,103036.67
2019-01-06T22:40:08.429Z,103031.64
2019-01-06T22:42:55.521Z,103034.39
2019-01-06T22:45:45.776Z,103027.91
2019-01-06T22:48:29.594Z,103020.92
2019-01-06T22:51:01.919Z,103023.86
2019-01-06T22:53:46.164Z,103020.85
2019-01-06T22:56:30.261Z,103019.80
2019-01-06T22:59:05.225Z,103023.20
2019-01-06T23:01:53.340Z,103021.64
2019-01-06T23:04:31.127Z,103019.28
2019-01-06T23:07:05.809Z,103017.59
2019-01-06T23:09:40.828Z,103016.13
2019-01-06T23:12:21.825Z,103010.69
2019-01-06T23:14:56.763Z,103014.11
2019-01-06T23:17:45.105Z,103013.06
2019-01-06T23:20:26.503Z,103011.19
2019-01-06T23:23:10.555Z,103013.62
2019-01-06T23:25:58.974Z,103013.42
2019-01-06T23:28:47.156Z,103016.41
2019-01-06T23:31:25.033Z,103009.83
2019-01-06T23:33:57.018Z,103007.14
2019-01-06T23:36:29.365Z,103014.55
2019-01-06T23:39:04.332Z,103014.23
2019-01-06T23:41:36.338Z,103014.23
2019-01-06T23:44:14.330Z,103018.59
2019-01-06T23:46:49.609Z,103018.51
2019-01-06T23:49:24.854Z,103015.92
2019-01-06T23:52:13.365Z,103022.08
2019-01-06T23:55:00.929Z,103012.34
2019-01-06T23:57:33.303Z,103019.25
